createdAt,value
2018-05-21T00:00:07.184Z,956.5
2018-05-21T00:01:07.207Z,956.48
2018-05-21T00:02:07.233Z,956.47
2018-05-21T00:03:07.255Z,956.46
2018-05-21T00:04:07.275Z,956.44
2018-05-21T00:05:07.298Z,956.45
2018-05-21T00:06:07.321Z,956.45
2018-05-21T00:07:07.341Z,956.42
2018-05-21T00:08:07.365Z,956.44
2018-05-21T00:09:07.389Z,956.46
2018-05-21T00:10:07.410Z,956.46
2018-05-21T00:11:07.433Z,956.44
2018-05-21T00:12:07.458Z,956.42
2018-05-21T00:13:07.484Z,956.44
2018-05-21T00:14:07.501Z,956.43
2018-05-21T00:15:07.535Z,956.38
2018-05-21T00:16:07.549Z,956.42
2018-05-21T00:17:07.571Z,956.37
2018-05-21T00:18:07.612Z,956.36
2018-05-21T00:19:07.613Z,956.38
2018-05-21T00:20:07.636Z,956.38
2018-05-21T00:21:07.656Z,956.38
2018-05-21T00:22:07.682Z,956.36
2018-05-21T00:23:07.705Z,956.4
2018-05-21T00:24:07.727Z,956.34
2018-05-21T00:25:07.746Z,956.39
2018-05-21T00:26:07.768Z,956.34
2018-05-21T00:27:07.793Z,956.36
2018-05-21T00:28:07.814Z,956.33
2018-05-21T00:29:07.836Z,956.32
2018-05-21T00:30:07.858Z,956.32
2018-05-21T00:31:07.887Z,956.28
2018-05-21T00:32:07.906Z,956.31
2018-05-21T00:33:07.924Z,956.33
2018-05-21T00:34:07.952Z,956.3
2018-05-21T00:35:07.977Z,956.28
2018-05-21T00:36:08.052Z,956.28
2018-05-21T00:37:08.012Z,956.29
2018-05-21T00:38:08.034Z,956.26
2018-05-21T00:39:08.057Z,956.24
2018-05-21T00:40:08.081Z,956.23
2018-05-21T00:41:08.112Z,956.21
2018-05-21T00:42:08.124Z,956.26
2018-05-21T00:43:08.146Z,956.22
2018-05-21T00:44:08.168Z,956.23
2018-05-21T00:45:08.190Z,956.22
2018-05-21T00:46:08.213Z,956.22
2018-05-21T00:47:08.235Z,956.25
2018-05-21T00:48:08.256Z,956.2
2018-05-21T00:49:08.278Z,956.21
2018-05-21T00:50:08.304Z,956.19
2018-05-21T00:51:08.333Z,956.21
2018-05-21T00:52:08.345Z,956.2
2018-05-21T00:53:08.369Z,956.15
2018-05-21T00:54:08.390Z,956.15
2018-05-21T00:55:08.415Z,956.13
2018-05-21T00:56:08.433Z,956.11
2018-05-21T00:57:08.466Z,956.12
2018-05-21T00:58:08.478Z,956.14
2018-05-21T00:59:08.499Z,956.1
2018-05-21T01:00:08.521Z,956.1
2018-05-21T01:01:08.549Z,956.12
2018-05-21T01:02:08.567Z,956.1
2018-05-21T01:03:08.587Z,956.14
2018-05-21T01:04:08.619Z,956.07
2018-05-21T01:05:08.631Z,956.09
2018-05-21T01:06:08.652Z,956.1
2018-05-21T01:07:08.674Z,956.08
2018-05-21T01:08:08.699Z,956.1
2018-05-21T01:09:08.718Z,956.07
2018-05-21T01:10:08.740Z,956.04
2018-05-21T01:11:08.765Z,956.06
2018-05-21T01:12:08.787Z,956.06
2018-05-21T01:13:08.808Z,956.02
2018-05-21T01:14:08.835Z,956.04
2018-05-21T01:15:08.853Z,956.03
2018-05-21T01:16:08.875Z,956.01
2018-05-21T01:17:08.895Z,956.01
2018-05-21T01:18:08.918Z,955.99
2018-05-21T01:19:08.941Z,955.98
2018-05-21T01:20:08.961Z,955.96
2018-05-21T01:21:08.985Z,955.89
2018-05-21T01:22:09.010Z,955.95
2018-05-21T01:23:09.028Z,955.9
2018-05-21T01:24:09.058Z,955.95
2018-05-21T01:25:09.071Z,955.99
2018-05-21T01:26:09.092Z,955.94
2018-05-21T01:27:09.116Z,955.97
2018-05-21T01:28:09.137Z,955.94
2018-05-21T01:29:09.159Z,955.91
2018-05-21T01:30:09.180Z,955.92
2018-05-21T01:31:09.205Z,955.92
2018-05-21T01:32:09.224Z,955.93
2018-05-21T01:33:09.246Z,955.97
2018-05-21T01:34:09.268Z,955.94
2018-05-21T01:35:09.290Z,955.93
2018-05-21T01:36:09.312Z,955.96
2018-05-21T01:37:09.333Z,955.93
2018-05-21T01:38:09.357Z,955.96
2018-05-21T01:39:09.378Z,955.96
2018-05-21T01:40:09.398Z,955.94
2018-05-21T01:41:09.428Z,955.98
2018-05-21T01:42:09.443Z,955.97
2018-05-21T01:43:09.464Z,955.96
2018-05-21T01:44:09.485Z,955.92
2018-05-21T01:45:09.509Z,955.93
2018-05-21T01:46:09.533Z,955.92
2018-05-21T01:47:09.552Z,955.96
2018-05-21T01:48:09.573Z,955.93
2018-05-21T01:49:09.595Z,955.95
2018-05-21T01:50:09.622Z,955.9
2018-05-21T01:51:09.638Z,955.9
2018-05-21T01:52:09.660Z,955.87
2018-05-21T01:53:09.686Z,955.89
2018-05-21T01:54:09.704Z,955.89
2018-05-21T01:55:09.726Z,955.87
2018-05-21T01:56:09.748Z,955.89
2018-05-21T01:57:09.768Z,955.87
2018-05-21T01:58:09.791Z,955.88
2018-05-21T01:59:09.812Z,955.88
2018-05-21T02:00:09.834Z,955.82
2018-05-21T02:01:09.857Z,955.83
2018-05-21T02:02:09.875Z,955.86
2018-05-21T02:03:09.902Z,955.86
2018-05-21T02:04:09.919Z,955.85
2018-05-21T02:05:09.943Z,955.85
2018-05-21T02:06:09.964Z,955.86
2018-05-21T02:07:09.986Z,955.88
2018-05-21T02:08:10.005Z,955.93
2018-05-21T02:09:10.028Z,955.91
2018-05-21T02:10:10.055Z,955.91
2018-05-21T02:11:10.072Z,955.92
2018-05-21T02:12:10.093Z,955.91
2018-05-21T02:13:10.121Z,955.93
2018-05-21T02:14:10.138Z,955.91
2018-05-21T02:15:10.159Z,955.88
2018-05-21T02:16:10.178Z,955.9
2018-05-21T02:17:10.204Z,955.88
2018-05-21T02:18:10.224Z,955.9
2018-05-21T02:19:10.248Z,955.87
2018-05-21T02:20:10.267Z,955.92
2018-05-21T02:21:10.292Z,955.9
2018-05-21T02:22:10.311Z,955.89
2018-05-21T02:23:10.332Z,955.88
2018-05-21T02:24:10.353Z,955.87
2018-05-21T02:25:10.376Z,955.89
2018-05-21T02:26:10.397Z,955.87
2018-05-21T02:27:10.418Z,955.84
2018-05-21T02:28:10.442Z,955.82
2018-05-21T02:29:10.461Z,955.85
2018-05-21T02:30:10.482Z,955.87
2018-05-21T02:31:10.513Z,955.83
2018-05-21T02:32:10.527Z,955.85
2018-05-21T02:33:10.549Z,955.84
2018-05-21T02:34:10.570Z,955.85
2018-05-21T02:35:10.596Z,955.86
2018-05-21T02:36:10.625Z,955.83
2018-05-21T02:37:10.635Z,955.87
2018-05-21T02:38:10.656Z,955.87
2018-05-21T02:39:10.678Z,955.81
2018-05-21T02:40:10.700Z,955.84
2018-05-21T02:41:10.719Z,955.85
2018-05-21T02:42:10.741Z,955.81
2018-05-21T02:43:10.763Z,955.83
2018-05-21T02:44:10.786Z,955.83
2018-05-21T02:45:10.804Z,955.87
2018-05-21T02:46:10.826Z,955.88
2018-05-21T02:47:10.849Z,955.86
2018-05-21T02:48:10.870Z,955.9
2018-05-21T02:49:10.892Z,955.87
2018-05-21T02:50:10.915Z,955.88
2018-05-21T02:51:10.936Z,955.84
2018-05-21T02:52:10.956Z,955.81
2018-05-21T02:53:10.979Z,955.82
2018-05-21T02:54:11.000Z,955.83
2018-05-21T02:55:11.023Z,955.81
2018-05-21T02:56:11.042Z,955.78
2018-05-21T02:57:11.063Z,955.81
2018-05-21T02:58:11.085Z,955.78
2018-05-21T02:59:11.124Z,955.84
2018-05-21T03:00:11.129Z,955.82
2018-05-21T03:01:11.222Z,955.81
2018-05-21T03:02:11.172Z,955.79
2018-05-21T03:03:11.192Z,955.77
2018-05-21T03:04:11.214Z,955.74
2018-05-21T03:05:11.239Z,955.75
2018-05-21T03:06:11.258Z,955.74
2018-05-21T03:07:11.276Z,955.74
2018-05-21T03:08:11.300Z,955.73
2018-05-21T03:09:11.325Z,955.76
2018-05-21T03:10:11.343Z,955.74
2018-05-21T03:11:11.363Z,955.7
2018-05-21T03:12:11.384Z,955.72
2018-05-21T03:13:11.408Z,955.69
2018-05-21T03:14:11.426Z,955.72
2018-05-21T03:15:11.448Z,955.68
2018-05-21T03:16:11.469Z,955.65
2018-05-21T03:17:11.486Z,955.71
2018-05-21T03:18:11.508Z,955.71
2018-05-21T03:19:11.528Z,955.71
2018-05-21T03:20:11.551Z,955.7
2018-05-21T03:21:11.573Z,955.7
2018-05-21T03:22:11.593Z,955.66
2018-05-21T03:23:11.615Z,955.71
2018-05-21T03:24:11.636Z,955.69
2018-05-21T03:25:11.660Z,955.71
2018-05-21T03:26:11.680Z,955.71
2018-05-21T03:27:11.701Z,955.66
2018-05-21T03:28:11.729Z,955.67
2018-05-21T03:29:11.742Z,955.7
2018-05-21T03:30:11.766Z,955.69
2018-05-21T03:31:11.793Z,955.68
2018-05-21T03:32:11.807Z,955.74
2018-05-21T03:33:11.827Z,955.74
2018-05-21T03:34:11.850Z,955.76
2018-05-21T03:35:11.872Z,955.75
2018-05-21T03:36:11.892Z,955.77
2018-05-21T03:37:11.914Z,955.81
2018-05-21T03:38:11.937Z,955.77
2018-05-21T03:39:11.957Z,955.77
2018-05-21T03:40:11.977Z,955.78
2018-05-21T03:41:11.999Z,955.76
2018-05-21T03:42:12.020Z,955.79
2018-05-21T03:43:12.041Z,955.82
2018-05-21T03:44:12.063Z,955.83
2018-05-21T03:45:12.083Z,955.84
2018-05-21T03:46:12.105Z,955.85
2018-05-21T03:47:12.125Z,955.82
2018-05-21T03:48:12.147Z,955.83
2018-05-21T03:49:12.168Z,955.84
2018-05-21T03:50:12.190Z,955.83
2018-05-21T03:51:12.209Z,955.85
2018-05-21T03:52:12.231Z,955.88
2018-05-21T03:53:12.252Z,955.88
2018-05-21T03:54:12.273Z,955.88
2018-05-21T03:55:12.296Z,955.88
2018-05-21T03:56:12.317Z,955.86
2018-05-21T03:57:12.341Z,955.82
2018-05-21T03:58:12.357Z,955.82
2018-05-21T03:59:12.380Z,955.83
2018-05-21T04:00:12.447Z,955.81
2018-05-21T04:01:12.423Z,955.8
2018-05-21T04:02:12.443Z,955.78
2018-05-21T04:03:12.468Z,955.78
2018-05-21T04:04:12.485Z,955.79
2018-05-21T04:05:12.506Z,955.77
2018-05-21T04:06:12.530Z,955.83
2018-05-21T04:07:12.549Z,955.87
2018-05-21T04:08:12.571Z,955.91
2018-05-21T04:09:12.591Z,955.9
2018-05-21T04:10:12.612Z,955.9
2018-05-21T04:11:12.633Z,955.88
2018-05-21T04:12:12.655Z,955.9
2018-05-21T04:13:12.675Z,955.89
2018-05-21T04:14:12.703Z,955.91
2018-05-21T04:15:12.718Z,955.9
2018-05-21T04:16:12.740Z,955.92
2018-05-21T04:17:12.763Z,955.9
2018-05-21T04:18:12.782Z,955.88
2018-05-21T04:19:12.803Z,955.9
2018-05-21T04:20:12.883Z,955.88
2018-05-21T04:21:12.846Z,955.9
2018-05-21T04:22:12.867Z,955.87
2018-05-21T04:23:12.889Z,955.88
2018-05-21T04:24:12.912Z,955.85
2018-05-21T04:25:12.930Z,955.88
2018-05-21T04:26:12.952Z,955.89
2018-05-21T04:27:12.972Z,955.9
2018-05-21T04:28:12.993Z,955.84
2018-05-21T04:29:13.015Z,955.88
2018-05-21T04:30:13.037Z,955.89
2018-05-21T04:31:13.056Z,955.91
2018-05-21T04:32:13.079Z,955.89
2018-05-21T04:33:13.101Z,955.9
2018-05-21T04:34:13.122Z,955.9
2018-05-21T04:35:13.142Z,955.91
2018-05-21T04:36:13.164Z,955.88
2018-05-21T04:37:13.189Z,955.91
2018-05-21T04:38:13.206Z,955.89
2018-05-21T04:39:13.227Z,955.88
2018-05-21T04:40:13.248Z,955.9
2018-05-21T04:41:13.272Z,955.91
2018-05-21T04:42:13.291Z,955.9
2018-05-21T04:43:13.314Z,955.96
2018-05-21T04:44:13.336Z,955.95
2018-05-21T04:45:13.356Z,955.94
2018-05-21T04:46:13.377Z,955.94
2018-05-21T04:47:13.399Z,955.94
2018-05-21T04:48:13.420Z,955.91
2018-05-21T04:49:13.441Z,955.92
2018-05-21T04:50:13.462Z,955.95
2018-05-21T04:51:13.484Z,955.93
2018-05-21T04:52:13.506Z,955.93
2018-05-21T04:53:13.527Z,955.9
2018-05-21T04:54:13.551Z,955.98
2018-05-21T04:55:13.571Z,955.98
2018-05-21T04:56:13.591Z,955.96
2018-05-21T04:57:13.613Z,956
2018-05-21T04:58:13.635Z,955.96
2018-05-21T04:59:13.657Z,955.97
2018-05-21T05:00:13.677Z,955.96
2018-05-21T05:01:13.705Z,955.99
2018-05-21T05:02:13.720Z,955.99
2018-05-21T05:03:13.748Z,955.96
2018-05-21T05:04:13.763Z,956.01
2018-05-21T05:05:13.783Z,956.01
2018-05-21T05:06:13.805Z,956.02
2018-05-21T05:07:13.826Z,956.04
2018-05-21T05:08:13.848Z,956.04
2018-05-21T05:09:13.873Z,956.05
2018-05-21T05:10:13.892Z,956.01
2018-05-21T05:11:13.912Z,956.01
2018-05-21T05:12:13.935Z,956
2018-05-21T05:13:13.956Z,956.01
2018-05-21T05:14:13.978Z,955.99
2018-05-21T05:15:13.999Z,955.98
2018-05-21T05:16:14.019Z,955.93
2018-05-21T05:17:14.042Z,955.95
2018-05-21T05:18:14.064Z,955.96
2018-05-21T05:19:14.094Z,955.91
2018-05-21T05:20:14.107Z,955.92
2018-05-21T05:21:14.129Z,955.85
2018-05-21T05:22:14.149Z,955.88
2018-05-21T05:23:14.171Z,955.82
2018-05-21T05:24:14.207Z,955.84
2018-05-21T05:25:14.217Z,955.9
2018-05-21T05:26:14.237Z,955.87
2018-05-21T05:27:14.259Z,955.88
2018-05-21T05:28:14.282Z,955.89
2018-05-21T05:29:14.301Z,955.9
2018-05-21T05:30:14.325Z,955.87
2018-05-21T05:31:14.345Z,955.89
2018-05-21T05:32:14.370Z,955.88
2018-05-21T05:33:14.387Z,955.86
2018-05-21T05:34:14.412Z,955.82
2018-05-21T05:35:14.432Z,955.82
2018-05-21T05:36:14.455Z,955.82
2018-05-21T05:37:14.478Z,955.83
2018-05-21T05:38:14.508Z,955.83
2018-05-21T05:39:14.542Z,955.83
2018-05-21T05:40:14.542Z,955.82
2018-05-21T05:41:14.566Z,955.83
2018-05-21T05:42:14.586Z,955.84
2018-05-21T05:43:14.607Z,955.85
2018-05-21T05:44:14.629Z,955.85
2018-05-21T05:45:14.651Z,955.88
2018-05-21T05:46:14.674Z,955.8
2018-05-21T05:47:14.707Z,955.83
2018-05-21T05:48:14.717Z,955.85
2018-05-21T05:49:14.739Z,955.86
2018-05-21T05:50:14.761Z,955.84
2018-05-21T05:51:14.783Z,955.84
2018-05-21T05:52:14.805Z,955.87
2018-05-21T05:53:14.828Z,955.91
2018-05-21T05:54:14.853Z,955.91
2018-05-21T05:55:14.875Z,955.88
2018-05-21T05:56:14.897Z,955.87
2018-05-21T05:57:14.918Z,955.88
2018-05-21T05:58:14.940Z,955.86
2018-05-21T05:59:14.964Z,955.87
2018-05-21T06:00:14.986Z,955.87
2018-05-21T06:01:15.010Z,955.84
2018-05-21T06:02:15.030Z,955.83
2018-05-21T06:03:15.053Z,955.81
2018-05-21T06:04:15.075Z,955.84
2018-05-21T06:05:15.098Z,955.84
2018-05-21T06:06:15.119Z,955.87
2018-05-21T06:07:15.142Z,955.88
2018-05-21T06:08:15.165Z,955.83
2018-05-21T06:09:15.185Z,955.85
2018-05-21T06:10:15.214Z,955.85
2018-05-21T06:11:15.231Z,955.83
2018-05-21T06:12:15.254Z,955.8
2018-05-21T06:13:15.274Z,955.81
2018-05-21T06:14:15.298Z,955.79
2018-05-21T06:15:15.320Z,955.79
2018-05-21T06:16:15.343Z,955.8
2018-05-21T06:17:15.364Z,955.86
2018-05-21T06:18:15.389Z,955.81
2018-05-21T06:19:15.411Z,955.83
2018-05-21T06:20:15.436Z,955.84
2018-05-21T06:21:15.455Z,955.83
2018-05-21T06:22:15.478Z,955.85
2018-05-21T06:23:15.505Z,955.77
2018-05-21T06:24:15.523Z,955.79
2018-05-21T06:25:15.623Z,955.8
2018-05-21T06:26:15.569Z,955.81
2018-05-21T06:27:15.593Z,955.81
2018-05-21T06:28:15.616Z,955.83
2018-05-21T06:29:15.637Z,955.83
2018-05-21T06:30:15.660Z,955.84
2018-05-21T06:31:15.682Z,955.81
2018-05-21T06:32:15.704Z,955.81
2018-05-21T06:33:15.736Z,955.83
2018-05-21T06:34:15.777Z,955.79
2018-05-21T06:35:15.774Z,955.82
2018-05-21T06:36:15.798Z,955.78
2018-05-21T06:37:15.821Z,955.75
2018-05-21T06:38:15.843Z,955.77
2018-05-21T06:39:15.883Z,955.73
2018-05-21T06:40:15.889Z,955.74
2018-05-21T06:41:15.933Z,955.75
2018-05-21T06:42:15.935Z,955.73
2018-05-21T06:43:15.959Z,955.71
2018-05-21T06:44:16.031Z,955.72
2018-05-21T06:45:16.005Z,955.7
2018-05-21T06:46:16.031Z,955.71
2018-05-21T06:47:16.051Z,955.71
2018-05-21T06:48:16.075Z,955.71
2018-05-21T06:49:16.098Z,955.67
2018-05-21T06:50:16.122Z,955.7
2018-05-21T06:51:16.147Z,955.71
2018-05-21T06:52:16.168Z,955.69
2018-05-21T06:53:16.189Z,955.68
2018-05-21T06:54:16.213Z,955.7
2018-05-21T06:55:16.239Z,955.7
2018-05-21T06:56:16.269Z,955.72
2018-05-21T06:57:16.283Z,955.66
2018-05-21T06:58:16.307Z,955.65
2018-05-21T06:59:16.381Z,955.7
2018-05-21T07:00:16.354Z,955.68
2018-05-21T07:01:16.468Z,955.68
2018-05-21T07:02:16.405Z,955.67
2018-05-21T07:03:16.425Z,955.69
2018-05-21T07:04:16.448Z,955.72
2018-05-21T07:05:16.471Z,955.7
2018-05-21T07:06:16.496Z,955.71
2018-05-21T07:07:16.519Z,955.76
2018-05-21T07:08:16.550Z,955.73
2018-05-21T07:09:16.566Z,955.69
2018-05-21T07:10:16.590Z,955.7
2018-05-21T07:11:16.632Z,955.75
2018-05-21T07:12:16.655Z,955.74
2018-05-21T07:13:16.660Z,955.74
2018-05-21T07:14:16.736Z,955.77
2018-05-21T07:15:16.709Z,955.78
2018-05-21T07:16:16.732Z,955.81
2018-05-21T07:17:16.756Z,955.8
2018-05-21T07:18:16.828Z,955.79
2018-05-21T07:19:16.804Z,955.8
2018-05-21T07:20:16.829Z,955.77
2018-05-21T07:21:16.852Z,955.74
2018-05-21T07:22:16.875Z,955.76
2018-05-21T07:23:16.897Z,955.78
2018-05-21T07:24:16.925Z,955.78
2018-05-21T07:25:16.948Z,955.81
2018-05-21T07:26:16.972Z,955.78
2018-05-21T07:27:16.995Z,955.73
2018-05-21T07:28:17.020Z,955.78
2018-05-21T07:29:18.296Z,955.74
2018-05-21T07:30:17.068Z,955.72
2018-05-21T07:31:17.091Z,955.73
2018-05-21T07:32:17.118Z,955.78
2018-05-21T07:33:17.141Z,955.73
2018-05-21T07:34:17.165Z,955.73
2018-05-21T07:35:17.188Z,955.71
2018-05-21T07:36:17.212Z,955.69
2018-05-21T07:37:17.236Z,955.67
2018-05-21T07:38:17.259Z,955.68
2018-05-21T07:39:17.284Z,955.7
2018-05-21T07:40:17.308Z,955.66
2018-05-21T07:41:17.333Z,955.68
2018-05-21T07:42:17.357Z,955.65
2018-05-21T07:43:17.387Z,955.64
2018-05-21T07:44:17.407Z,955.6
2018-05-21T07:45:17.430Z,955.59
2018-05-21T07:46:17.455Z,955.62
2018-05-21T07:47:17.479Z,955.59
2018-05-21T07:48:17.503Z,955.59
2018-05-21T07:49:17.527Z,955.54
2018-05-21T07:50:17.552Z,955.57
2018-05-21T07:51:17.643Z,955.6
2018-05-21T07:52:17.602Z,955.58
2018-05-21T07:53:17.627Z,955.55
2018-05-21T07:54:17.651Z,955.55
2018-05-21T07:55:17.676Z,955.58
2018-05-21T07:56:17.699Z,955.56
2018-05-21T07:57:17.723Z,955.55
2018-05-21T07:58:17.818Z,955.54
2018-05-21T07:59:17.774Z,955.53
2018-05-21T08:00:17.798Z,955.54
2018-05-21T08:01:17.823Z,955.53
2018-05-21T08:02:17.847Z,955.52
2018-05-21T08:03:17.871Z,955.54
2018-05-21T08:04:17.895Z,955.52
2018-05-21T08:05:17.925Z,955.49
2018-05-21T08:06:17.943Z,955.45
2018-05-21T08:07:17.977Z,955.48
2018-05-21T08:08:17.993Z,955.44
2018-05-21T08:09:18.020Z,955.47
2018-05-21T08:10:18.042Z,955.46
2018-05-21T08:11:18.067Z,955.45
2018-05-21T08:12:18.097Z,955.46
2018-05-21T08:13:18.117Z,955.38
2018-05-21T08:14:18.141Z,955.42
2018-05-21T08:15:18.167Z,955.41
2018-05-21T08:16:18.193Z,955.41
2018-05-21T08:17:18.221Z,955.4
2018-05-21T08:18:18.240Z,955.41
2018-05-21T08:19:18.266Z,955.41
2018-05-21T08:20:18.292Z,955.39
2018-05-21T08:21:18.316Z,955.4
2018-05-21T08:22:18.356Z,955.37
2018-05-21T08:23:18.367Z,955.35
2018-05-21T08:24:18.391Z,955.36
2018-05-21T08:25:18.420Z,955.37
2018-05-21T08:26:18.443Z,955.33
2018-05-21T08:27:18.466Z,955.34
2018-05-21T08:28:18.492Z,955.32
2018-05-21T08:29:18.538Z,955.32
2018-05-21T08:30:18.546Z,955.38
2018-05-21T08:31:18.566Z,955.35
2018-05-21T08:32:18.591Z,955.33
2018-05-21T08:33:18.617Z,955.39
2018-05-21T08:34:18.646Z,955.36
2018-05-21T08:35:18.668Z,955.36
2018-05-21T08:36:18.692Z,955.35
2018-05-21T08:37:18.718Z,955.32
2018-05-21T08:38:18.749Z,955.33
2018-05-21T08:39:18.768Z,955.32
2018-05-21T08:40:18.800Z,955.34
2018-05-21T08:41:18.820Z,955.29
2018-05-21T08:42:18.845Z,955.31
2018-05-21T08:43:18.868Z,955.3
2018-05-21T08:44:18.895Z,955.27
2018-05-21T08:45:18.923Z,955.33
2018-05-21T08:46:18.974Z,955.31
2018-05-21T08:47:18.975Z,955.34
2018-05-21T08:48:18.998Z,955.35
2018-05-21T08:49:19.023Z,955.3
2018-05-21T08:50:19.048Z,955.29
2018-05-21T08:51:19.072Z,955.29
2018-05-21T08:52:19.180Z,955.25
2018-05-21T08:53:19.125Z,955.31
2018-05-21T08:54:19.151Z,955.28
2018-05-21T08:55:19.274Z,955.26
2018-05-21T08:56:19.203Z,955.26
2018-05-21T08:57:19.229Z,955.27
2018-05-21T08:58:19.255Z,955.27
2018-05-21T08:59:19.290Z,955.28
2018-05-21T09:00:19.315Z,955.25
2018-05-21T09:01:19.332Z,955.19
2018-05-21T09:02:19.358Z,955.25
2018-05-21T09:03:19.384Z,955.24
2018-05-21T09:04:19.411Z,955.25
2018-05-21T09:05:19.436Z,955.2
2018-05-21T09:06:19.464Z,955.23
2018-05-21T09:07:19.488Z,955.22
2018-05-21T09:08:19.516Z,955.24
2018-05-21T09:09:19.542Z,955.22
2018-05-21T09:10:19.567Z,955.24
2018-05-21T09:11:19.595Z,955.24
2018-05-21T09:12:19.655Z,955.18
2018-05-21T09:13:19.646Z,955.2
2018-05-21T09:14:19.674Z,955.18
2018-05-21T09:15:19.700Z,955.21
2018-05-21T09:16:19.790Z,955.2
2018-05-21T09:17:19.752Z,955.17
2018-05-21T09:18:19.778Z,955.18
2018-05-21T09:19:19.804Z,955.18
2018-05-21T09:20:19.831Z,955.22
2018-05-21T09:21:19.855Z,955.16
2018-05-21T09:22:19.881Z,955.19
2018-05-21T09:23:19.908Z,955.21
2018-05-21T09:24:19.934Z,955.21
2018-05-21T09:25:19.961Z,955.18
2018-05-21T09:26:19.986Z,955.22
2018-05-21T09:27:20.012Z,955.21
2018-05-21T09:28:20.040Z,955.19
2018-05-21T09:29:20.071Z,955.18
2018-05-21T09:30:20.092Z,955.17
2018-05-21T09:31:20.200Z,955.16
2018-05-21T09:32:20.210Z,955.13
2018-05-21T09:33:20.175Z,955.11
2018-05-21T09:34:20.209Z,955.13
2018-05-21T09:35:20.228Z,955.13
2018-05-21T09:36:20.253Z,955.17
2018-05-21T09:37:20.281Z,955.17
2018-05-21T09:38:20.308Z,955.19
2018-05-21T09:39:20.335Z,955.12
2018-05-21T09:40:20.362Z,955.08
2018-05-21T09:41:20.391Z,955.09
2018-05-21T09:42:20.415Z,955.1
2018-05-21T09:43:20.444Z,955.11
2018-05-21T09:44:20.469Z,955.12
2018-05-21T09:45:20.500Z,955.13
2018-05-21T09:46:20.526Z,955.12
2018-05-21T09:47:20.553Z,955.1
2018-05-21T09:48:20.582Z,955.12
2018-05-21T09:49:20.609Z,955.16
2018-05-21T09:50:20.637Z,955.15
2018-05-21T09:51:20.666Z,955.14
2018-05-21T09:52:20.695Z,955.19
2018-05-21T09:53:20.726Z,955.15
2018-05-21T09:54:20.752Z,955.13
2018-05-21T09:55:20.781Z,955.1
2018-05-21T09:56:20.811Z,955.1
2018-05-21T09:57:20.841Z,955.1
2018-05-21T09:58:20.869Z,955.09
2018-05-21T09:59:20.901Z,955.07
2018-05-21T10:00:20.931Z,955.13
2018-05-21T10:01:20.960Z,955.08
2018-05-21T10:02:20.990Z,955.06
2018-05-21T10:03:21.018Z,955.14
2018-05-21T10:04:21.050Z,955.09
2018-05-21T10:05:21.082Z,955.12
2018-05-21T10:06:21.110Z,955.12
2018-05-21T10:07:21.140Z,955.08
2018-05-21T10:08:21.171Z,955.07
2018-05-21T10:09:21.201Z,955.07
2018-05-21T10:10:21.240Z,955.07
2018-05-21T10:11:21.274Z,955.03
2018-05-21T10:12:21.296Z,955.04
2018-05-21T10:13:21.328Z,955.05
2018-05-21T10:14:21.365Z,955.03
2018-05-21T10:15:21.392Z,955.04
2018-05-21T10:16:21.422Z,955.02
2018-05-21T10:17:21.455Z,955.01
2018-05-21T10:18:21.489Z,955
2018-05-21T10:19:21.592Z,954.99
2018-05-21T10:20:21.552Z,955.05
2018-05-21T10:21:21.581Z,955.02
2018-05-21T10:22:21.613Z,954.99
2018-05-21T10:23:21.645Z,955
2018-05-21T10:24:21.690Z,955.01
2018-05-21T10:25:21.708Z,955.05
2018-05-21T10:26:21.742Z,954.97
2018-05-21T10:27:21.775Z,955.01
2018-05-21T10:28:21.806Z,955.01
2018-05-21T10:29:21.839Z,954.98
2018-05-21T10:30:21.871Z,954.98
2018-05-21T10:31:21.905Z,954.97
2018-05-21T10:32:21.938Z,954.95
2018-05-21T10:33:21.968Z,954.96
2018-05-21T10:34:22.002Z,954.97
2018-05-21T10:35:22.035Z,954.96
2018-05-21T10:36:22.068Z,954.95
2018-05-21T10:37:22.166Z,954.94
2018-05-21T10:38:22.133Z,954.99
2018-05-21T10:39:22.170Z,954.95
2018-05-21T10:40:22.199Z,954.92
2018-05-21T10:41:22.233Z,954.96
2018-05-21T10:42:22.266Z,954.97
2018-05-21T10:43:22.299Z,954.98
2018-05-21T10:44:22.332Z,954.95
2018-05-21T10:45:22.365Z,954.97
2018-05-21T10:46:22.404Z,954.96
2018-05-21T10:47:22.432Z,954.97
2018-05-21T10:48:22.465Z,954.97
2018-05-21T10:49:22.499Z,954.92
2018-05-21T10:50:22.535Z,954.97
2018-05-21T10:51:22.628Z,954.95
2018-05-21T10:52:22.598Z,954.94
2018-05-21T10:53:22.632Z,954.89
2018-05-21T10:54:22.729Z,954.87
2018-05-21T10:55:22.701Z,954.9
2018-05-21T10:56:22.923Z,954.78
2018-05-21T10:57:22.765Z,954.8
2018-05-21T10:58:22.798Z,954.8
2018-05-21T10:59:22.832Z,954.82
2018-05-21T11:00:22.866Z,954.77
2018-05-21T11:01:22.901Z,954.79
2018-05-21T11:02:22.934Z,954.78
2018-05-21T11:03:22.968Z,954.82
2018-05-21T11:04:23.003Z,954.79
2018-05-21T11:05:23.039Z,954.83
2018-05-21T11:06:23.070Z,954.82
2018-05-21T11:07:23.104Z,954.77
2018-05-21T11:08:23.140Z,954.79
2018-05-21T11:09:23.172Z,954.73
2018-05-21T11:10:23.207Z,954.75
2018-05-21T11:11:23.240Z,954.79
2018-05-21T11:12:23.275Z,954.76
2018-05-21T11:13:23.337Z,954.8
2018-05-21T11:14:23.342Z,954.76
2018-05-21T11:15:23.376Z,954.74
2018-05-21T11:16:23.412Z,954.75
2018-05-21T11:17:23.446Z,954.77
2018-05-21T11:18:23.479Z,954.77
2018-05-21T11:19:23.514Z,954.76
2018-05-21T11:20:23.548Z,954.73
2018-05-21T11:21:23.582Z,954.74
2018-05-21T11:22:23.617Z,954.75
2018-05-21T11:23:23.652Z,954.73
2018-05-21T11:24:23.687Z,954.73
2018-05-21T11:25:23.722Z,954.76
2018-05-21T11:26:23.761Z,954.76
2018-05-21T11:27:23.789Z,954.77
2018-05-21T11:28:23.839Z,954.76
2018-05-21T11:29:23.860Z,954.81
2018-05-21T11:30:23.894Z,954.73
2018-05-21T11:31:23.929Z,954.8
2018-05-21T11:32:23.964Z,954.74
2018-05-21T11:33:23.999Z,954.74
2018-05-21T11:34:24.034Z,954.69
2018-05-21T11:35:24.070Z,954.72
2018-05-21T11:36:24.104Z,954.7
2018-05-21T11:37:24.139Z,954.72
2018-05-21T11:38:24.174Z,954.67
2018-05-21T11:39:24.213Z,954.72
2018-05-21T11:40:24.246Z,954.73
2018-05-21T11:41:24.282Z,954.76
2018-05-21T11:42:24.319Z,954.72
2018-05-21T11:43:24.352Z,954.69
2018-05-21T11:44:24.390Z,954.72
2018-05-21T11:45:24.423Z,954.69
2018-05-21T11:46:24.463Z,954.66
2018-05-21T11:47:24.699Z,954.72
2018-05-21T11:48:24.528Z,954.71
2018-05-21T11:49:24.562Z,954.71
2018-05-21T11:50:24.600Z,954.72
2018-05-21T11:51:24.636Z,954.66
2018-05-21T11:52:24.671Z,954.66
2018-05-21T11:53:24.707Z,954.63
2018-05-21T11:54:24.744Z,954.66
2018-05-21T11:55:24.777Z,954.68
2018-05-21T11:56:24.819Z,954.65
2018-05-21T11:57:24.849Z,954.61
2018-05-21T11:58:24.886Z,954.65
2018-05-21T11:59:24.922Z,954.55
2018-05-21T12:00:24.959Z,954.57
2018-05-21T12:01:24.994Z,954.62
2018-05-21T12:02:25.030Z,954.62
2018-05-21T12:03:25.067Z,954.57
2018-05-21T12:04:25.110Z,954.56
2018-05-21T12:05:25.139Z,954.53
2018-05-21T12:06:25.175Z,954.53
2018-05-21T12:07:25.212Z,954.56
2018-05-21T12:08:25.246Z,954.53
2018-05-21T12:09:25.282Z,954.55
2018-05-21T12:10:25.321Z,954.58
2018-05-21T12:11:25.355Z,954.57
2018-05-21T12:12:25.392Z,954.6
2018-05-21T12:13:25.432Z,954.6
2018-05-21T12:14:25.548Z,954.57
2018-05-21T12:15:25.500Z,954.6
2018-05-21T12:16:25.537Z,954.56
2018-05-21T12:17:25.575Z,954.52
2018-05-21T12:18:25.611Z,954.54
2018-05-21T12:19:25.645Z,954.58
2018-05-21T12:20:25.682Z,954.53
2018-05-21T12:21:25.719Z,954.53
2018-05-21T12:22:25.843Z,954.46
2018-05-21T12:23:25.792Z,954.54
2018-05-21T12:24:25.831Z,954.49
2018-05-21T12:25:25.867Z,954.49
2018-05-21T12:26:25.903Z,954.52
2018-05-21T12:27:25.939Z,954.52
2018-05-21T12:28:25.981Z,954.27
2018-05-21T12:29:26.015Z,954.3
2018-05-21T12:30:26.064Z,954.32
2018-05-21T12:31:26.086Z,954.28